createdAt,value
2022-09-14T00:00:12.521Z,97836.00
2022-09-14T00:03:00.014Z,97845.00
2022-09-14T00:05:47.806Z,97841.00
2022-09-14T00:08:37.415Z,97841.00
2022-09-14T00:11:28.762Z,97845.00
2022-09-14T00:14:18.265Z,97841.00
2022-09-14T00:17:05.857Z,97835.00
2022-09-14T00:19:53.750Z,97829.00
2022-09-14T00:22:41.900Z,97820.00
2022-09-14T00:25:29.981Z,97819.00
2022-09-14T00:28:18.106Z,97823.00
2022-09-14T00:31:06.501Z,97830.00
2022-09-14T00:33:54.491Z,97829.00
2022-09-14T00:36:46.464Z,97828.00
2022-09-14T00:39:33.925Z,97834.00
2022-09-14T00:42:21.380Z,97826.00
2022-09-14T00:45:21.041Z,97824.00
2022-09-14T00:48:09.074Z,97824.00
2022-09-14T00:50:57.006Z,97821.00
2022-09-14T00:53:44.559Z,97818.00
2022-09-14T00:56:32.185Z,97811.00
2022-09-14T00:59:31.481Z,97801.00
2022-09-14T01:02:23.133Z,97791.00
2022-09-14T01:05:12.085Z,97787.00
2022-09-14T01:08:19.347Z,97784.00
2022-09-14T01:11:18.554Z,97779.00
2022-09-14T01:14:42.469Z,97758.00
2022-09-14T01:17:47.049Z,97755.00
2022-09-14T01:21:10.374Z,97759.00
2022-09-14T01:24:17.026Z,97773.00
2022-09-14T01:27:21.710Z,97771.00
2022-09-14T01:30:15.345Z,97776.00
2022-09-14T01:33:21.983Z,97766.00
2022-09-14T01:36:14.394Z,97771.00
2022-09-14T01:39:03.358Z,97768.00
2022-09-14T01:41:54.229Z,97771.00
2022-09-14T01:44:47.562Z,97771.00
2022-09-14T01:47:46.997Z,97771.00
2022-09-14T01:50:47.296Z,97775.00
2022-09-14T01:53:50.040Z,97769.00
2022-09-14T01:56:51.184Z,97762.00
2022-09-14T01:59:46.307Z,97750.00
2022-09-14T02:02:44.790Z,97755.00
2022-09-14T02:05:59.886Z,97739.00
2022-09-14T02:08:47.969Z,97739.00
2022-09-14T02:11:36.039Z,97750.00
2022-09-14T02:14:24.049Z,97739.00
2022-09-14T02:17:12.270Z,97736.00
2022-09-14T02:20:04.984Z,97743.00
2022-09-14T02:22:53.161Z,97747.00
2022-09-14T02:25:41.259Z,97744.00
2022-09-14T02:28:28.834Z,97737.00
2022-09-14T02:31:42.077Z,97727.00
2022-09-14T02:34:45.640Z,97732.00
2022-09-14T02:38:08.102Z,97734.00
2022-09-14T02:41:03.074Z,97733.00
2022-09-14T02:44:27.782Z,97738.00
2022-09-14T02:47:38.914Z,97737.00
2022-09-14T02:51:12.415Z,97745.00
2022-09-14T02:54:20.674Z,97736.00
2022-09-14T02:57:09.885Z,97729.00
2022-09-14T02:59:57.367Z,97730.00
2022-09-14T03:02:44.765Z,97720.00
2022-09-14T03:05:33.025Z,97715.00
2022-09-14T03:08:20.414Z,97719.00
2022-09-14T03:11:08.520Z,97712.00
2022-09-14T03:13:55.965Z,97716.00
2022-09-14T03:16:43.504Z,97708.00
2022-09-14T03:19:30.967Z,97706.00
2022-09-14T03:22:18.409Z,97704.00
2022-09-14T03:25:06.859Z,97694.00
2022-09-14T03:27:59.909Z,97702.00
2022-09-14T03:30:47.510Z,97709.00
2022-09-14T03:33:35.364Z,97701.00
2022-09-14T03:36:25.392Z,97703.00
2022-09-14T03:39:12.809Z,97693.00
2022-09-14T03:42:00.200Z,97695.00
2022-09-14T03:44:47.616Z,97697.00
2022-09-14T03:47:35.035Z,97692.00
2022-09-14T03:50:22.544Z,97688.00
2022-09-14T03:53:10.093Z,97681.00
2022-09-14T03:55:58.125Z,97678.00
2022-09-14T03:58:47.662Z,97670.00
2022-09-14T04:01:35.213Z,97682.00
2022-09-14T04:04:22.804Z,97688.00
2022-09-14T04:07:10.319Z,97692.00
2022-09-14T04:09:57.885Z,97692.00
2022-09-14T04:12:45.399Z,97692.00
2022-09-14T04:15:32.830Z,97684.00
2022-09-14T04:18:20.254Z,97694.00
2022-09-14T04:21:13.794Z,97704.00
2022-09-14T04:24:14.537Z,97705.00
2022-09-14T04:27:03.206Z,97709.00
2022-09-14T04:29:51.043Z,97710.00
2022-09-14T04:32:38.517Z,97703.00
2022-09-14T04:35:25.899Z,97700.00
2022-09-14T04:38:13.311Z,97699.00
2022-09-14T04:41:14.351Z,97698.00
2022-09-14T04:44:02.120Z,97706.00
2022-09-14T04:46:49.621Z,97693.00
2022-09-14T04:49:37.074Z,97692.00
2022-09-14T04:52:24.844Z,97679.00
2022-09-14T04:55:12.249Z,97667.00
2022-09-14T04:57:59.685Z,97663.00
2022-09-14T05:00:47.079Z,97656.00
2022-09-14T05:03:35.979Z,97660.00
2022-09-14T05:06:27.434Z,97665.00
2022-09-14T05:09:18.685Z,97667.00
2022-09-14T05:12:06.669Z,97670.00
2022-09-14T05:14:54.104Z,97682.00
2022-09-14T05:17:41.534Z,97693.00
2022-09-14T05:20:29.767Z,97689.00
2022-09-14T05:23:17.174Z,97694.00
2022-09-14T05:26:06.565Z,97692.00
2022-09-14T05:28:58.109Z,97681.00
2022-09-14T05:31:46.850Z,97674.00
2022-09-14T05:34:34.408Z,97685.00
2022-09-14T05:37:21.846Z,97680.00
2022-09-14T05:40:10.394Z,97679.00
2022-09-14T05:42:58.055Z,97676.00
2022-09-14T05:45:45.505Z,97670.00
2022-09-14T05:48:34.644Z,97679.00
2022-09-14T05:51:25.658Z,97672.00
2022-09-14T05:54:13.126Z,97661.00
2022-09-14T05:57:00.534Z,97662.00
2022-09-14T05:59:47.954Z,97659.00
2022-09-14T06:02:35.360Z,97660.00
2022-09-14T06:05:25.664Z,97660.00
2022-09-14T06:08:13.085Z,97665.00
2022-09-14T06:11:15.155Z,97662.00
2022-09-14T06:14:03.050Z,97652.00
2022-09-14T06:16:50.665Z,97655.00
2022-09-14T06:19:38.129Z,97655.00
2022-09-14T06:22:25.529Z,97648.00
2022-09-14T06:25:12.955Z,97652.00
2022-09-14T06:28:00.404Z,97657.00
2022-09-14T06:30:47.857Z,97658.00
2022-09-14T06:33:35.951Z,97651.00
2022-09-14T06:36:27.559Z,97656.00
2022-09-14T06:39:15.104Z,97665.00
2022-09-14T06:42:02.750Z,97662.00
2022-09-14T06:44:51.086Z,97667.00
2022-09-14T06:47:38.515Z,97665.00
2022-09-14T06:50:26.695Z,97675.00
2022-09-14T06:53:14.243Z,97674.00
2022-09-14T06:56:01.745Z,97673.00
2022-09-14T06:58:50.700Z,97672.00
2022-09-14T07:01:40.849Z,97669.00
2022-09-14T07:04:28.319Z,97674.00
2022-09-14T07:07:16.701Z,97661.00
2022-09-14T07:10:04.744Z,97673.00
2022-09-14T07:12:52.146Z,97664.00
2022-09-14T07:15:39.560Z,97668.00
2022-09-14T07:18:29.156Z,97685.00
2022-09-14T07:21:19.583Z,97685.00
2022-09-14T07:24:07.709Z,97708.00
2022-09-14T07:26:55.129Z,97737.00
2022-09-14T07:29:42.565Z,97741.00
2022-09-14T07:32:30.652Z,97750.00
2022-09-14T07:35:18.075Z,97758.00
2022-09-14T07:38:05.443Z,97791.00
2022-09-14T07:40:53.410Z,97786.00
2022-09-14T07:43:40.879Z,97774.00
2022-09-14T07:46:33.499Z,97756.00
2022-09-14T07:49:22.479Z,97748.00
2022-09-14T07:52:11.340Z,97730.00
2022-09-14T07:54:58.844Z,97717.00
2022-09-14T07:57:56.026Z,97715.00
2022-09-14T08:00:44.684Z,97713.00
2022-09-14T08:03:32.366Z,97704.00
2022-09-14T08:06:26.499Z,97687.00
2022-09-14T08:09:14.390Z,97715.00
2022-09-14T08:12:02.085Z,97705.00
2022-09-14T08:14:51.400Z,97701.00
2022-09-14T08:17:39.135Z,97703.00
2022-09-14T08:20:26.595Z,97703.00
2022-09-14T08:23:14.003Z,97703.00
2022-09-14T08:26:08.384Z,97715.00
2022-09-14T08:28:57.065Z,97726.00
2022-09-14T08:31:46.208Z,97724.00
2022-09-14T08:34:34.462Z,97734.00
2022-09-14T08:37:22.094Z,97733.00
2022-09-14T08:40:13.633Z,97722.00
2022-09-14T08:43:04.299Z,97712.00
2022-09-14T08:46:06.365Z,97702.00
2022-09-14T08:48:54.544Z,97702.00
2022-09-14T08:51:43.166Z,97699.00
2022-09-14T08:54:33.506Z,97704.00
2022-09-14T08:57:43.075Z,97705.00
2022-09-14T09:00:54.196Z,97713.00
2022-09-14T09:04:03.073Z,97703.00
2022-09-14T09:07:05.400Z,97704.00
2022-09-14T09:09:57.051Z,97696.00
2022-09-14T09:13:06.785Z,97708.00
2022-09-14T09:16:01.085Z,97694.00
2022-09-14T09:19:05.976Z,97699.00
2022-09-14T09:21:54.480Z,97691.00
2022-09-14T09:24:47.830Z,97678.00
2022-09-14T09:27:35.271Z,97674.00
2022-09-14T09:30:22.805Z,97686.00
2022-09-14T09:33:24.094Z,97697.00
2022-09-14T09:36:15.255Z,97702.00
2022-09-14T09:39:05.409Z,97711.00
2022-09-14T09:42:12.454Z,97704.00
2022-09-14T09:45:06.163Z,97702.00
2022-09-14T09:47:53.610Z,97697.00
2022-09-14T09:51:27.119Z,97695.00
2022-09-14T09:54:14.494Z,97704.00
2022-09-14T09:57:07.586Z,97696.00
2022-09-14T10:00:23.604Z,97707.00
2022-09-14T10:03:36.130Z,97694.00
2022-09-14T10:06:23.621Z,97682.00
2022-09-14T10:09:21.314Z,97684.00
2022-09-14T10:12:16.840Z,97683.00
2022-09-14T10:15:22.216Z,97686.00
2022-09-14T10:18:18.956Z,97675.00
2022-09-14T10:21:09.769Z,97677.00
2022-09-14T10:24:26.384Z,97669.00
2022-09-14T10:27:42.164Z,97665.00
2022-09-14T10:30:43.772Z,97661.00
2022-09-14T10:33:31.239Z,97651.00
2022-09-14T10:36:32.314Z,97664.00
2022-09-14T10:39:39.209Z,97660.00
2022-09-14T10:42:54.738Z,97657.00
2022-09-14T10:45:53.250Z,97640.00
2022-09-14T10:49:10.266Z,97646.00
2022-09-14T10:52:24.389Z,97650.00
2022-09-14T10:55:34.557Z,97642.00
2022-09-14T10:59:02.872Z,97643.00
2022-09-14T11:02:29.728Z,97639.00
2022-09-14T11:05:38.164Z,97618.00
2022-09-14T11:08:47.906Z,97613.00
2022-09-14T11:11:53.524Z,97605.00
2022-09-14T11:15:02.529Z,97606.00
2022-09-14T11:18:27.660Z,97609.00
2022-09-14T11:21:44.544Z,97599.00
2022-09-14T11:25:01.274Z,97593.00
2022-09-14T11:28:27.625Z,97584.00
2022-09-14T11:31:30.854Z,97580.00
2022-09-14T11:34:41.810Z,97562.00
2022-09-14T11:37:47.623Z,97545.00
2022-09-14T11:41:45.094Z,97542.00
2022-09-14T11:44:42.385Z,97538.00
2022-09-14T11:47:41.994Z,97527.00
2022-09-14T11:50:33.184Z,97531.00
2022-09-14T11:53:24.439Z,97528.00
2022-09-14T11:56:34.097Z,97521.00
2022-09-14T11:59:42.519Z,97513.00
2022-09-14T12:02:45.652Z,97504.00
2022-09-14T12:05:35.110Z,97498.00
2022-09-14T12:08:38.174Z,97495.00
2022-09-14T12:11:34.710Z,97493.00
2022-09-14T12:14:28.776Z,97486.00
2022-09-14T12:17:39.743Z,97486.00
2022-09-14T12:20:37.753Z,97474.00
2022-09-14T12:23:37.312Z,97482.00
2022-09-14T12:26:31.663Z,97481.00
2022-09-14T12:29:34.205Z,97481.00
2022-09-14T12:32:39.235Z,97486.00
2022-09-14T12:35:46.716Z,97497.00
2022-09-14T12:39:02.469Z,97500.00
2022-09-14T12:41:49.841Z,97505.00
2022-09-14T12:44:46.209Z,97495.00
2022-09-14T12:47:35.799Z,97497.00
2022-09-14T12:50:23.526Z,97494.00
2022-09-14T12:53:30.230Z,97495.00
2022-09-14T12:56:35.754Z,97485.00
2022-09-14T13:00:09.983Z,97489.00
2022-09-14T13:03:21.590Z,97489.00
2022-09-14T13:06:13.809Z,97475.00
2022-09-14T13:09:07.405Z,97471.00
2022-09-14T13:12:07.474Z,97451.00
2022-09-14T13:15:02.844Z,97459.00
2022-09-14T13:18:18.908Z,97453.00
2022-09-14T13:21:25.078Z,97450.00
2022-09-14T13:24:43.293Z,97449.00
2022-09-14T13:27:33.998Z,97455.00
2022-09-14T13:30:27.214Z,97446.00
2022-09-14T13:33:18.715Z,97444.00
2022-09-14T13:36:06.839Z,97444.00
2022-09-14T13:38:55.993Z,97441.00
2022-09-14T13:41:45.009Z,97443.00
2022-09-14T13:44:47.181Z,97443.00
2022-09-14T13:47:35.045Z,97447.00
2022-09-14T13:50:25.507Z,97450.00
2022-09-14T13:53:48.978Z,97441.00
2022-09-14T13:56:36.634Z,97446.00
2022-09-14T13:59:24.160Z,97443.00
2022-09-14T14:02:14.283Z,97456.00
2022-09-14T14:05:03.446Z,97453.00
2022-09-14T14:07:52.056Z,97439.00
2022-09-14T14:10:47.504Z,97453.00
2022-09-14T14:13:38.354Z,97453.00
2022-09-14T14:16:30.213Z,97442.00
2022-09-14T14:19:30.050Z,97439.00
2022-09-14T14:22:32.634Z,97429.00
2022-09-14T14:25:29.088Z,97433.00
2022-09-14T14:28:30.479Z,97443.00
2022-09-14T14:31:22.088Z,97445.00
2022-09-14T14:34:30.454Z,97450.00
2022-09-14T14:37:17.899Z,97460.00
2022-09-14T14:40:06.219Z,97466.00
2022-09-14T14:42:55.301Z,97466.00
2022-09-14T14:45:42.841Z,97458.00
2022-09-14T14:48:31.604Z,97449.00
2022-09-14T14:51:19.109Z,97444.00
2022-09-14T14:54:07.365Z,97441.00
2022-09-14T14:56:56.004Z,97447.00
2022-09-14T14:59:43.465Z,97449.00
2022-09-14T15:02:30.870Z,97455.00
2022-09-14T15:05:19.719Z,97445.00
2022-09-14T15:08:07.245Z,97445.00
2022-09-14T15:10:57.831Z,97445.00
2022-09-14T15:13:46.729Z,97448.00
2022-09-14T15:16:34.310Z,97435.00
2022-09-14T15:19:21.806Z,97430.00
2022-09-14T15:22:10.705Z,97428.00
2022-09-14T15:24:58.221Z,97417.00
2022-09-14T15:27:46.084Z,97416.00
2022-09-14T15:30:33.546Z,97417.00
2022-09-14T15:33:21.024Z,97417.00
2022-09-14T15:36:08.555Z,97414.00
2022-09-14T15:38:57.018Z,97408.00
2022-09-14T15:41:44.584Z,97409.00
2022-09-14T15:44:33.105Z,97407.00
2022-09-14T15:47:20.559Z,97409.00
2022-09-14T15:50:08.516Z,97398.00
2022-09-14T15:53:00.451Z,97393.00
2022-09-14T15:55:50.179Z,97396.00
2022-09-14T15:58:37.734Z,97395.00
2022-09-14T16:01:25.673Z,97384.00
2022-09-14T16:04:13.999Z,97381.00
2022-09-14T16:07:02.072Z,97371.00
2022-09-14T16:09:49.578Z,97360.00
2022-09-14T16:12:36.985Z,97353.00
2022-09-14T16:15:24.920Z,97354.00
2022-09-14T16:18:12.371Z,97354.00
2022-09-14T16:21:13.709Z,97351.00
2022-09-14T16:24:06.650Z,97354.00
2022-09-14T16:26:54.332Z,97345.00
2022-09-14T16:29:41.805Z,97353.00
2022-09-14T16:32:29.266Z,97353.00
2022-09-14T16:35:16.771Z,97357.00
2022-09-14T16:38:04.805Z,97351.00
2022-09-14T16:40:59.984Z,97354.00
2022-09-14T16:43:47.786Z,97347.00
2022-09-14T16:46:35.526Z,97352.00
2022-09-14T16:49:27.222Z,97354.00
2022-09-14T16:52:15.195Z,97353.00
2022-09-14T16:55:02.655Z,97351.00
2022-09-14T16:57:50.205Z,97344.00
2022-09-14T17:00:40.271Z,97344.00
2022-09-14T17:03:31.792Z,97352.00
2022-09-14T17:06:26.669Z,97340.00
2022-09-14T17:09:19.244Z,97331.00
2022-09-14T17:12:07.835Z,97332.00
2022-09-14T17:14:55.220Z,97321.00
2022-09-14T17:17:42.735Z,97318.00
2022-09-14T17:20:30.204Z,97320.00
2022-09-14T17:23:17.590Z,97335.00
2022-09-14T17:26:08.809Z,97332.00
2022-09-14T17:28:58.570Z,97354.00
2022-09-14T17:31:46.419Z,97353.00
2022-09-14T17:34:34.050Z,97354.00
2022-09-14T17:37:21.499Z,97355.00
2022-09-14T17:40:10.936Z,97366.00
2022-09-14T17:42:58.494Z,97375.00
2022-09-14T17:45:55.089Z,97373.00
2022-09-14T17:48:43.425Z,97390.00
2022-09-14T17:51:32.555Z,97417.00
2022-09-14T17:55:31.762Z,97523.00
2022-09-14T17:58:19.939Z,97599.00
2022-09-14T18:01:18.352Z,97570.00
2022-09-14T18:04:12.166Z,97566.00
2022-09-14T18:06:59.669Z,97541.00
2022-09-14T18:09:47.185Z,97533.00
2022-09-14T18:12:36.573Z,97560.00
2022-09-14T18:15:23.969Z,97563.00
2022-09-14T18:18:11.944Z,97565.00
2022-09-14T18:21:01.341Z,97566.00
2022-09-14T18:23:51.735Z,97570.00
2022-09-14T18:26:39.332Z,97585.00
2022-09-14T18:29:27.611Z,97594.00
2022-09-14T18:32:15.109Z,97603.00
2022-09-14T18:35:02.700Z,97596.00
2022-09-14T18:37:50.105Z,97588.00
2022-09-14T18:40:38.602Z,97581.00
2022-09-14T18:43:26.275Z,97587.00
2022-09-14T18:46:14.980Z,97567.00
2022-09-14T18:49:03.444Z,97553.00
2022-09-14T18:51:51.184Z,97552.00
2022-09-14T18:54:38.796Z,97541.00
2022-09-14T18:57:28.430Z,97542.00
2022-09-14T19:00:18.784Z,97532.00
2022-09-14T19:03:07.184Z,97566.00
2022-09-14T19:05:55.629Z,97551.00
2022-09-14T19:08:44.783Z,97551.00
2022-09-14T19:11:33.390Z,97524.00
2022-09-14T19:14:22.176Z,97521.00
2022-09-14T19:17:09.714Z,97511.00
2022-09-14T19:19:57.392Z,97498.00
2022-09-14T19:22:44.864Z,97514.00
2022-09-14T19:25:38.295Z,97517.00
2022-09-14T19:28:25.745Z,97522.00
2022-09-14T19:31:20.443Z,97527.00
2022-09-14T19:34:08.253Z,97530.00
2022-09-14T19:36:56.229Z,97523.00
2022-09-14T19:39:43.930Z,97536.00
2022-09-14T19:42:31.344Z,97535.00
2022-09-14T19:45:19.335Z,97540.00
2022-09-14T19:48:06.904Z,97538.00
2022-09-14T19:51:03.289Z,97537.00
2022-09-14T19:53:56.438Z,97540.00
2022-09-14T19:56:46.083Z,97531.00
2022-09-14T19:59:33.606Z,97538.00
2022-09-14T20:02:21.225Z,97532.00
2022-09-14T20:05:10.702Z,97531.00
2022-09-14T20:07:58.485Z,97540.00
2022-09-14T20:10:45.946Z,97548.00
2022-09-14T20:13:34.854Z,97552.00
2022-09-14T20:16:31.848Z,97554.00
2022-09-14T20:19:23.235Z,97547.00
2022-09-14T20:22:13.693Z,97557.00
2022-09-14T20:25:05.685Z,97550.00
2022-09-14T20:27:53.154Z,97559.00
2022-09-14T20:30:41.179Z,97560.00
2022-09-14T20:33:29.402Z,97560.00
2022-09-14T20:36:20.799Z,97550.00
2022-09-14T20:39:09.195Z,97556.00
2022-09-14T20:41:56.605Z,97559.00
2022-09-14T20:44:44.134Z,97559.00
2022-09-14T20:47:31.559Z,97542.00
2022-09-14T20:50:18.978Z,97537.00
2022-09-14T20:53:06.414Z,97542.00
2022-09-14T20:56:26.202Z,97541.00
2022-09-14T20:59:18.037Z,97545.00
2022-09-14T21:02:05.917Z,97543.00
2022-09-14T21:04:53.486Z,97558.00
2022-09-14T21:07:40.974Z,97565.00
2022-09-14T21:10:29.520Z,97566.00
2022-09-14T21:13:17.208Z,97565.00
2022-09-14T21:16:21.315Z,97569.00
2022-09-14T21:19:24.249Z,97573.00
2022-09-14T21:22:11.766Z,97574.00
2022-09-14T21:24:59.175Z,97568.00
2022-09-14T21:27:46.649Z,97560.00
2022-09-14T21:30:34.159Z,97550.00
2022-09-14T21:33:21.614Z,97564.00
2022-09-14T21:36:13.990Z,97569.00
2022-09-14T21:39:08.622Z,97575.00
2022-09-14T21:41:59.333Z,97570.00
2022-09-14T21:44:47.291Z,97570.00
2022-09-14T21:47:34.839Z,97576.00
2022-09-14T21:50:22.305Z,97571.00
2022-09-14T21:53:10.098Z,97575.00
2022-09-14T21:55:57.572Z,97568.00
2022-09-14T21:58:51.290Z,97570.00
2022-09-14T22:01:39.087Z,97568.00
2022-09-14T22:04:26.999Z,97573.00
2022-09-14T22:07:14.400Z,97564.00
2022-09-14T22:10:01.854Z,97565.00
2022-09-14T22:12:49.311Z,97568.00
2022-09-14T22:15:36.788Z,97568.00
2022-09-14T22:18:24.556Z,97563.00
2022-09-14T22:21:11.905Z,97549.00
2022-09-14T22:24:02.649Z,97556.00
2022-09-14T22:26:50.644Z,97543.00
2022-09-14T22:29:44.109Z,97539.00
2022-09-14T22:32:31.561Z,97547.00
2022-09-14T22:35:18.986Z,97545.00
2022-09-14T22:38:08.189Z,97539.00
2022-09-14T22:41:08.234Z,97526.00
2022-09-14T22:43:57.050Z,97528.00
2022-09-14T22:46:44.893Z,97524.00
2022-09-14T22:49:32.286Z,97532.00
2022-09-14T22:52:19.705Z,97533.00
2022-09-14T22:55:07.821Z,97521.00
2022-09-14T22:57:55.319Z,97516.00
2022-09-14T23:00:44.396Z,97520.00
2022-09-14T23:03:31.841Z,97518.00
2022-09-14T23:06:19.294Z,97520.00
2022-09-14T23:09:10.159Z,97533.00
2022-09-14T23:11:57.760Z,97535.00
2022-09-14T23:14:45.164Z,97527.00
2022-09-14T23:17:32.670Z,97532.00
2022-09-14T23:20:20.206Z,97536.00
2022-09-14T23:23:08.541Z,97538.00
2022-09-14T23:25:56.075Z,97537.00
2022-09-14T23:28:43.562Z,97529.00
2022-09-14T23:31:32.549Z,97526.00
2022-09-14T23:34:19.991Z,97525.00
2022-09-14T23:37:07.495Z,97528.00
2022-09-14T23:39:54.991Z,97527.00
2022-09-14T23:42:42.430Z,97523.00
2022-09-14T23:45:29.857Z,97527.00
2022-09-14T23:48:17.315Z,97529.00
2022-09-14T23:51:08.820Z,97532.00
2022-09-14T23:53:56.316Z,97530.00
2022-09-14T23:56:44.014Z,97532.00
2022-09-14T23:59:31.544Z,97532.00
